createdAt,value
2023-01-30T00:01:56.326Z,88.67
2023-01-30T00:04:24.213Z,88.63
2023-01-30T00:06:52.223Z,88.60
2023-01-30T00:09:20.041Z,88.58
2023-01-30T00:11:47.848Z,88.56
2023-01-30T00:14:15.717Z,88.54
2023-01-30T00:16:43.670Z,88.53
2023-01-30T00:19:11.662Z,88.50
2023-01-30T00:21:39.409Z,88.52
2023-01-30T00:24:07.838Z,88.53
2023-01-30T00:26:35.618Z,88.56
2023-01-30T00:29:03.843Z,88.61
2023-01-30T00:31:31.744Z,88.64
2023-01-30T00:33:59.557Z,88.67
2023-01-30T00:36:27.344Z,88.69
2023-01-30T00:38:57.336Z,88.73
2023-01-30T00:41:45.066Z,88.76
2023-01-30T00:44:31.437Z,88.72
2023-01-30T00:47:09.312Z,88.64
2023-01-30T00:49:37.974Z,88.60
2023-01-30T00:52:06.659Z,88.60
2023-01-30T00:54:35.024Z,88.61
2023-01-30T00:57:03.063Z,88.60
2023-01-30T00:59:30.947Z,88.52
2023-01-30T07:01:50.013Z,81.18
2023-01-30T07:04:18.067Z,81.05
2023-01-30T07:06:47.041Z,80.71
2023-01-30T07:09:14.809Z,80.52
2023-01-30T07:11:42.661Z,80.46
2023-01-30T07:14:10.527Z,80.39
2023-01-30T07:16:38.319Z,80.74
2023-01-30T07:19:06.156Z,81.04
2023-01-30T07:21:33.924Z,81.29
2023-01-30T07:24:01.695Z,81.68
2023-01-30T07:26:31.445Z,82.05
2023-01-30T07:28:59.256Z,82.52
2023-01-30T07:31:27.060Z,83.08
2023-01-30T07:33:54.886Z,83.45
2023-01-30T07:36:22.752Z,83.86
2023-01-30T07:38:50.477Z,84.08
2023-01-30T07:41:18.285Z,84.41
2023-01-30T07:43:46.055Z,84.67
2023-01-30T07:46:13.805Z,84.89
2023-01-30T07:48:42.087Z,85.06
2023-01-30T07:51:09.853Z,85.20
2023-01-30T07:53:37.708Z,85.29
2023-01-30T07:56:10.328Z,85.45
2023-01-30T07:58:38.112Z,85.52
2023-01-30T08:01:06.557Z,85.78
2023-01-30T08:03:34.396Z,85.87
2023-01-30T08:06:02.156Z,86.08
2023-01-30T08:08:30.059Z,86.27
2023-01-30T08:10:57.892Z,86.38
2023-01-30T08:13:25.759Z,86.57
2023-01-30T08:15:53.642Z,86.80
2023-01-30T08:18:21.463Z,86.88
2023-01-30T08:20:49.460Z,86.95
2023-01-30T08:23:17.321Z,87.08
2023-01-30T08:25:45.185Z,87.30
2023-01-30T08:28:13.068Z,87.35
2023-01-30T08:30:43.901Z,87.39
2023-01-30T08:33:11.751Z,87.36
2023-01-30T08:35:40.437Z,87.37
2023-01-30T08:38:09.236Z,87.41
2023-01-30T08:40:37.600Z,87.49
2023-01-30T08:43:05.981Z,87.55
2023-01-30T08:45:34.623Z,87.51
2023-01-30T08:48:05.086Z,87.42
2023-01-30T08:50:34.161Z,87.39
2023-01-30T08:53:10.071Z,87.53
2023-01-30T08:55:37.817Z,87.79
2023-01-30T08:58:05.662Z,87.98
2023-01-30T09:00:33.526Z,88.15
2023-01-30T09:03:02.222Z,88.26
2023-01-30T09:05:30.288Z,88.17
2023-01-30T09:07:58.188Z,88.12
2023-01-30T09:10:26.014Z,88.04
2023-01-30T09:12:53.872Z,88.15
2023-01-30T09:15:21.642Z,88.39
2023-01-30T09:17:49.552Z,88.66
2023-01-30T09:20:19.096Z,88.81
2023-01-30T09:22:47.195Z,88.93
2023-01-30T09:25:15.321Z,88.96
2023-01-30T09:27:44.764Z,88.80
2023-01-30T09:30:13.190Z,88.55
2023-01-30T09:32:41.007Z,88.36
2023-01-30T09:35:08.980Z,88.31
2023-01-30T09:37:36.842Z,88.24
2023-01-30T09:40:05.460Z,88.08
2023-01-30T09:42:38.049Z,87.96
2023-01-30T09:45:26.857Z,87.72
2023-01-30T09:47:57.440Z,87.42
2023-01-30T09:50:56.209Z,87.24
2023-01-30T09:53:29.060Z,87.22
2023-01-30T09:55:59.408Z,87.22
2023-01-30T09:58:52.841Z,87.14
2023-01-30T10:01:46.533Z,87.12
2023-01-30T10:04:34.813Z,87.25
2023-01-30T10:07:13.543Z,87.39
2023-01-30T10:10:04.077Z,87.50
2023-01-30T10:12:31.737Z,87.64
2023-01-30T10:15:25.344Z,87.56
2023-01-30T10:18:13.856Z,87.64
2023-01-30T10:21:20.617Z,87.78
2023-01-30T10:24:00.289Z,87.99
2023-01-30T10:26:29.236Z,88.14
2023-01-30T10:29:07.651Z,88.31
2023-01-30T10:31:59.992Z,88.46
2023-01-30T10:34:33.601Z,88.73
2023-01-30T10:37:22.019Z,88.98
2023-01-30T10:40:15.214Z,89.26
2023-01-30T10:43:05.001Z,89.37
2023-01-30T10:45:38.603Z,89.52
2023-01-30T10:48:12.404Z,89.50
2023-01-30T10:50:48.296Z,89.40
2023-01-30T10:53:18.581Z,89.37
2023-01-30T10:55:55.670Z,89.46
2023-01-30T10:58:42.078Z,89.49
2023-01-30T11:01:24.804Z,89.42
2023-01-30T11:04:07.595Z,89.44
2023-01-30T11:06:35.625Z,89.49
2023-01-30T11:09:04.272Z,89.54
2023-01-30T11:11:54.542Z,89.52
2023-01-30T11:14:22.605Z,89.49
2023-01-30T11:16:53.545Z,89.43
2023-01-30T11:19:26.016Z,89.34
2023-01-30T11:21:56.853Z,89.29
2023-01-30T11:24:30.631Z,89.22
2023-01-30T11:27:21.991Z,89.26
2023-01-30T11:29:52.527Z,89.16
2023-01-30T11:32:26.879Z,89.02
2023-01-30T11:35:07.096Z,88.80
2023-01-30T11:37:37.298Z,88.68
2023-01-30T11:40:26.936Z,88.57
2023-01-30T11:43:10.969Z,88.60
2023-01-30T11:45:43.952Z,88.66
2023-01-30T11:49:01.619Z,88.66
2023-01-30T11:51:14.692Z,88.60
2023-01-30T11:53:49.004Z,88.75
2023-01-30T11:56:38.643Z,88.84
2023-01-30T11:59:20.546Z,88.91
2023-01-30T12:01:48.579Z,88.96
2023-01-30T12:04:16.634Z,89.03
2023-01-30T12:06:44.562Z,89.11
2023-01-30T12:09:33.639Z,89.17
2023-01-30T12:12:01.580Z,89.19
2023-01-30T12:14:38.994Z,89.16
2023-01-30T12:17:10.318Z,89.12
2023-01-30T12:20:26.477Z,89.12
2023-01-30T12:23:15.751Z,89.09
2023-01-30T12:26:15.788Z,89.06
2023-01-30T12:28:57.205Z,89.04
2023-01-30T12:31:43.217Z,89.06
2023-01-30T12:34:10.979Z,89.07
2023-01-30T12:36:50.891Z,89.07
2023-01-30T12:39:44.246Z,89.09
2023-01-30T12:42:23.787Z,89.11
2023-01-30T12:45:05.008Z,89.10
2023-01-30T12:47:41.736Z,89.14
2023-01-30T12:50:47.183Z,89.13
2023-01-30T12:53:41.369Z,89.14
2023-01-30T12:56:32.071Z,89.14
2023-01-30T12:59:17.779Z,89.20
2023-01-30T13:02:10.122Z,89.26
2023-01-30T13:05:04.323Z,89.38
2023-01-30T13:07:35.733Z,89.42
2023-01-30T13:10:35.873Z,89.40
2023-01-30T13:13:31.458Z,89.48
2023-01-30T13:16:17.714Z,89.44
2023-01-30T13:19:06.306Z,89.49
2023-01-30T13:21:41.545Z,89.63
2023-01-30T13:24:55.548Z,89.64
2023-01-30T13:27:25.915Z,89.64
2023-01-30T13:29:54.395Z,89.69
2023-01-30T13:32:25.226Z,89.67
2023-01-30T13:34:57.100Z,89.65
2023-01-30T13:37:25.056Z,89.64
2023-01-30T13:40:16.791Z,89.68
2023-01-30T13:42:50.800Z,89.69
2023-01-30T13:45:22.870Z,89.71
2023-01-30T13:48:21.398Z,89.71
2023-01-30T13:51:04.107Z,89.63
2023-01-30T13:53:37.650Z,89.47
2023-01-30T13:56:27.105Z,89.38
2023-01-30T13:59:35.655Z,89.36
2023-01-30T14:02:03.820Z,89.32
2023-01-30T14:04:41.334Z,89.27
2023-01-30T14:07:09.067Z,89.19
2023-01-30T14:09:37.447Z,89.17
2023-01-30T14:12:06.960Z,89.21
2023-01-30T14:14:40.867Z,89.31
2023-01-30T14:17:11.227Z,89.40
2023-01-30T14:19:54.312Z,89.45
2023-01-30T14:22:35.596Z,89.48
2023-01-30T14:25:25.462Z,89.57
2023-01-30T14:28:05.620Z,89.60
2023-01-30T14:30:37.919Z,89.63
2023-01-30T14:33:20.906Z,89.71
2023-01-30T14:36:01.122Z,89.77
2023-01-30T14:38:31.783Z,89.84
2023-01-30T14:41:02.669Z,89.84
2023-01-30T14:43:42.825Z,89.91
2023-01-30T14:46:20.029Z,89.98
2023-01-30T14:48:52.442Z,90.01
2023-01-30T14:51:25.127Z,90.02
2023-01-30T14:53:58.135Z,90.07
2023-01-30T14:56:54.460Z,90.10
2023-01-30T14:59:37.709Z,90.17
2023-01-30T15:02:15.098Z,90.19
2023-01-30T15:05:04.252Z,90.22
2023-01-30T15:07:49.415Z,90.21
2023-01-30T15:10:38.970Z,90.21
2023-01-30T15:13:27.733Z,90.20
2023-01-30T15:16:04.864Z,90.15
2023-01-30T15:18:51.721Z,90.10
2023-01-30T15:21:25.732Z,90.06
2023-01-30T15:24:12.026Z,90.05
2023-01-30T15:27:07.372Z,90.06
2023-01-30T15:29:45.868Z,89.99
2023-01-30T15:32:20.273Z,89.94
2023-01-30T15:34:54.156Z,89.91
2023-01-30T15:37:48.051Z,89.91
2023-01-30T15:40:16.014Z,89.95
2023-01-30T15:43:26.073Z,89.97
2023-01-30T15:46:00.293Z,89.97
2023-01-30T15:49:06.099Z,89.97
2023-01-30T15:51:35.119Z,89.97
2023-01-30T15:54:11.123Z,89.95
2023-01-30T15:56:40.838Z,89.92
2023-01-30T15:59:24.127Z,89.90
2023-01-30T16:02:12.772Z,89.90
2023-01-30T16:04:40.746Z,89.88
2023-01-30T16:07:24.800Z,89.89
2023-01-30T16:10:06.994Z,89.87
2023-01-30T16:12:40.895Z,89.84
2023-01-30T16:15:36.002Z,89.83
2023-01-30T16:18:22.085Z,89.93
2023-01-30T16:21:01.909Z,90.03
2023-01-30T16:23:52.301Z,90.14
2023-01-30T16:26:22.041Z,90.02
2023-01-30T16:28:51.576Z,90.11
2023-01-30T16:31:19.542Z,90.00
2023-01-30T16:33:53.105Z,89.85
2023-01-30T16:36:21.083Z,89.76
2023-01-30T16:38:50.385Z,89.68
2023-01-30T16:41:41.041Z,89.64
2023-01-30T16:44:22.265Z,89.56
2023-01-30T16:46:52.932Z,89.39
2023-01-30T16:49:25.577Z,89.33
2023-01-30T16:52:21.807Z,89.33
2023-01-30T16:54:55.814Z,89.30
2023-01-30T16:57:42.018Z,89.10
2023-01-30T17:00:42.802Z,88.99
2023-01-30T17:03:28.799Z,88.78
2023-01-30T17:05:58.473Z,88.63
2023-01-30T17:08:48.017Z,88.52
2023-01-30T17:11:31.144Z,88.29
2023-01-30T17:14:27.273Z,88.17
2023-01-30T17:17:10.191Z,88.16
2023-01-30T17:19:38.367Z,88.13
2023-01-30T17:22:16.265Z,88.10
2023-01-30T17:24:44.336Z,88.12
2023-01-30T17:27:12.299Z,88.15
2023-01-30T17:29:43.905Z,88.15
2023-01-30T17:32:14.282Z,88.16
2023-01-30T17:34:42.295Z,88.19
2023-01-30T17:37:15.775Z,88.21
2023-01-30T17:39:44.141Z,88.12
2023-01-30T17:42:14.043Z,88.12
2023-01-30T17:44:41.911Z,88.17
2023-01-30T17:47:12.384Z,88.17
2023-01-30T17:49:40.715Z,88.09
2023-01-30T17:52:08.843Z,87.95
2023-01-30T17:54:36.847Z,87.95
2023-01-30T17:57:07.468Z,87.95
2023-01-30T17:59:36.080Z,87.81
2023-01-30T18:02:04.282Z,87.73
2023-01-30T18:04:35.134Z,87.79
2023-01-30T18:07:06.592Z,87.81
2023-01-30T18:09:34.783Z,87.97
2023-01-30T18:12:04.047Z,87.51
2023-01-30T18:14:32.463Z,87.54
2023-01-30T18:17:01.615Z,87.53
2023-01-30T18:19:32.079Z,87.47
2023-01-30T18:22:00.363Z,87.46
2023-01-30T18:24:28.541Z,87.47
2023-01-30T18:27:01.468Z,87.49
2023-01-30T18:29:29.920Z,87.47
2023-01-30T18:32:03.612Z,87.46
2023-01-30T18:34:33.000Z,87.53
2023-01-30T18:37:00.789Z,87.63
2023-01-30T18:39:28.728Z,87.74
2023-01-30T18:41:56.490Z,87.80
2023-01-30T18:44:25.388Z,87.85
2023-01-30T18:46:53.252Z,87.88
2023-01-30T18:49:21.552Z,87.89
2023-01-30T18:51:49.493Z,87.92
2023-01-30T18:54:17.357Z,87.95
2023-01-30T18:56:45.325Z,87.98
2023-01-30T18:59:13.155Z,88.00
2023-01-30T19:01:42.963Z,87.97
2023-01-30T19:04:11.699Z,88.03
2023-01-30T19:06:42.227Z,88.04
2023-01-30T19:09:15.382Z,88.07
2023-01-30T19:12:01.925Z,88.03
2023-01-30T19:14:30.289Z,88.05
2023-01-30T19:16:58.356Z,88.09
2023-01-30T19:19:27.296Z,88.10
2023-01-30T19:21:55.430Z,88.09
2023-01-30T19:24:24.039Z,88.13
2023-01-30T19:26:52.192Z,88.16
2023-01-30T19:29:20.555Z,88.21
2023-01-30T19:31:48.582Z,88.26
2023-01-30T19:34:16.593Z,88.35
2023-01-30T19:36:44.459Z,88.43
2023-01-30T19:39:12.962Z,88.54
2023-01-30T19:41:40.902Z,88.57
2023-01-30T19:44:10.511Z,88.70
2023-01-30T19:46:38.426Z,88.84
2023-01-30T19:49:06.356Z,88.94
2023-01-30T19:51:35.709Z,89.11
2023-01-30T19:54:06.808Z,89.17
2023-01-30T19:56:36.664Z,89.31
2023-01-30T19:59:04.993Z,89.54
2023-01-30T20:01:37.041Z,89.86
2023-01-30T20:04:05.395Z,90.08
2023-01-30T20:06:35.106Z,90.25
2023-01-30T20:09:08.426Z,90.38
2023-01-30T20:11:37.876Z,90.47
2023-01-30T20:14:07.203Z,90.48
2023-01-30T20:16:36.341Z,90.43
2023-01-30T20:19:07.817Z,90.37
2023-01-30T20:21:36.250Z,90.32
2023-01-30T20:24:04.648Z,90.33
2023-01-30T20:26:36.026Z,90.30
2023-01-30T20:29:04.797Z,90.27
2023-01-30T20:31:34.719Z,90.25
2023-01-30T20:34:04.327Z,90.25
2023-01-30T20:36:32.781Z,90.30
2023-01-30T20:39:04.531Z,90.30
2023-01-30T20:41:37.441Z,90.30
2023-01-30T20:44:07.893Z,90.29
2023-01-30T20:46:42.584Z,90.26
2023-01-30T20:49:16.880Z,90.27
2023-01-30T20:51:45.271Z,90.25
2023-01-30T20:54:14.934Z,90.21
2023-01-30T20:56:52.205Z,90.18
2023-01-30T20:59:24.351Z,90.18
2023-01-30T21:01:53.279Z,90.20
2023-01-30T21:04:24.493Z,90.15
2023-01-30T21:06:53.051Z,90.12
2023-01-30T21:09:24.503Z,90.11
2023-01-30T21:11:53.496Z,90.10
2023-01-30T21:14:21.744Z,90.11
2023-01-30T21:16:49.802Z,90.12
2023-01-30T21:19:18.325Z,90.15
2023-01-30T21:21:55.057Z,90.17
2023-01-30T21:24:26.738Z,90.20
2023-01-30T21:26:55.679Z,90.20
2023-01-30T21:29:26.699Z,90.15
2023-01-30T21:31:56.549Z,90.13
2023-01-30T21:34:24.830Z,90.06
2023-01-30T21:37:11.453Z,89.98
2023-01-30T21:39:57.746Z,89.90
2023-01-30T21:42:44.440Z,89.80
2023-01-30T21:45:12.521Z,89.82
2023-01-30T21:47:40.286Z,89.80
2023-01-30T21:50:09.266Z,89.76
2023-01-30T21:52:37.972Z,89.73
2023-01-30T21:55:06.236Z,89.71
2023-01-30T21:57:34.411Z,89.62
2023-01-30T22:00:02.240Z,89.58
2023-01-30T22:02:30.035Z,89.47
2023-01-30T22:04:57.899Z,89.51
2023-01-30T22:07:25.758Z,89.55
2023-01-30T22:09:54.049Z,89.50
2023-01-30T22:12:21.926Z,89.50
2023-01-30T22:14:49.700Z,89.46
2023-01-30T22:17:17.493Z,89.33
2023-01-30T22:19:45.601Z,89.25
2023-01-30T22:22:13.467Z,89.28
2023-01-30T22:24:41.440Z,89.26
2023-01-30T22:27:09.198Z,89.28
2023-01-30T22:29:37.338Z,89.33
2023-01-30T22:32:05.475Z,89.36
2023-01-30T22:34:35.786Z,89.36
2023-01-30T22:37:03.744Z,89.33
2023-01-30T22:39:31.614Z,89.35
2023-01-30T22:41:59.383Z,89.30
2023-01-30T22:44:27.425Z,89.27
2023-01-30T22:46:55.300Z,89.25
2023-01-30T22:49:23.487Z,89.23
2023-01-30T22:51:51.642Z,89.20
2023-01-30T22:54:19.720Z,89.14
2023-01-30T22:56:49.119Z,89.11
2023-01-30T22:59:17.451Z,89.08
2023-01-30T23:01:47.819Z,89.11
2023-01-30T23:04:18.785Z,89.14
2023-01-30T23:06:47.949Z,89.13
2023-01-30T23:09:18.600Z,89.04
2023-01-30T23:12:09.394Z,89.10
2023-01-30T23:14:38.104Z,89.07
2023-01-30T23:17:26.016Z,88.98
2023-01-30T23:19:55.320Z,88.94
2023-01-30T23:22:23.278Z,88.95
2023-01-30T23:24:51.575Z,88.84
2023-01-30T23:27:21.001Z,88.59
2023-01-30T23:29:48.995Z,88.71
2023-01-30T23:32:20.091Z,88.74
2023-01-30T23:34:48.328Z,88.71
2023-01-30T23:37:17.282Z,88.70
2023-01-30T23:39:45.594Z,88.69
2023-01-30T23:42:13.604Z,88.71
2023-01-30T23:44:41.747Z,88.61
2023-01-30T23:47:09.503Z,88.48
2023-01-30T23:49:37.683Z,88.55
2023-01-30T23:52:05.650Z,88.32
2023-01-30T23:54:33.511Z,88.37
2023-01-30T23:57:01.270Z,88.43
2023-01-30T23:59:29.033Z,88.47
